Bellevue, NE

10:49 PM CST on December 20, 2014 (GMT -0600)
Southern Oaks - SW Bellevue | Change Station
CLOSE
Current Station
Personal Weather Station
Location: Bellevue, NE
Elevation: 1033 ft
Nearby Weather Stations
Active Advisory: Dense Fog Advisory

Elev 1033 ft 41.13 °N, 95.95 °W | Updated 4 seconds ago

Clear
Clear
33.8 °F
Feels Like 34 °F
N
0.0
Wind Variable Wind from SE
Gusts 2.0 mph

Today
High -- | Low -- °F
--% Chance of Precip.
Yesterday
High -- | Low -- °F
Precip. -- in
7:45 AM 4:57 PM
Waning Crescent, 1% visible
Pressure 30.03 in
Visibility 1.5 miles
Clouds Clear
Windchill 34 °F
Dew Point 33 °F
Humidity 96%
Rainfall 0.00 in
Snow Depth Not available.
UV 0 out of 12
Pollen .10 out of 12
Air Quality Not available.
Flu Activity Not available.
SPECI KOFF 210446Z AUTO 13008KT 1 1/2SM R12/5500FT BR CLR 01/00 A3003 RMK AO2 VIS 1 1/2V3 VIS 1 3/4 RWY12

More Conditions Fewer Conditions

Pressure 30.03 in
Visibility 1.5 miles
Clouds Clear
Windchill 34 °F
Dew Point 33 °F
Humidity 96%
Rainfall 0.00 in
Snow Depth Not available.
UV 0 out of 12
Pollen .10 out of 12
Air Quality Not available.
Flu Activity Not available.
SPECI KOFF 210446Z AUTO 13008KT 1 1/2SM R12/5500FT BR CLR 01/00 A3003 RMK AO2 VIS 1 1/2V3 VIS 1 3/4 RWY12

More Conditions Fewer Conditions

10-Day Weather Forecast

Almanac

Astronomy

Dec. 20, 2014 Rise Set
Actual Time
Civil Twilight
Nautical Twilight
Astronomical Twilight
Moon
Length of Visible Light
Length of Day
Tomorrow will be .
, % of the Moon is Illuminated

Today's Extremes

State Highs State Lows

Community

WunderPhotos

Upload Photos

1,779,358 photos uploaded!

WunderBlogs® & News

Nearby

Air Quality

  Air Quality AQ Index Pollutant
Not available.

Snow Depth

Station Depth Elevation

Earthquake Activity

City Distance Mag. Time & Date
Minimum magnitude displayed is 2.5.

Coastal Water Temperatures

Place Temperature

Nearby Weather Stations